Time;durP1;ratioP1;P1;durP2;ratioP2;P2;SDS_P1;SDS_P2;PMS_P1;PMS_P2;Temp;Humidity;BMP_temperature;BMP_pressure;BME280_temperature;BME280_humidity;BME280_pressure;Samples;Min_cycle;Max_cycle;Signal;HPM_P1;HPM_P2
2021/04/15 00:00:45;;;;;;;1.23;1.10;;;1.10;98.00;;;;;;5050964;28;20468;-73
2021/04/15 00:03:16;;;;;;;1.40;1.37;;;1.20;98.00;;;;;;5048808;28;20453;-72
2021/04/15 00:05:42;;;;;;;1.47;1.20;;;1.20;98.00;;;;;;5051054;28;20465;-72
2021/04/15 00:08:10;;;;;;;1.30;1.10;;;1.30;98.00;;;;;;5048651;28;20459;-72
2021/04/15 00:10:41;;;;;;;1.20;1.00;;;1.20;98.00;;;;;;5050915;28;20610;-73
2021/04/15 00:13:13;;;;;;;1.20;1.10;;;1.10;98.00;;;;;;5048416;28;20471;-72
2021/04/15 00:15:39;;;;;;;1.30;1.10;;;1.20;98.00;;;;;;5050738;28;20971;-73
2021/04/15 00:18:07;;;;;;;1.20;1.10;;;1.20;98.00;;;;;;5048175;28;20460;-73
2021/04/15 00:20:33;;;;;;;1.70;1.30;;;1.40;98.00;;;;;;5051352;28;20488;-73
2021/04/15 00:23:00;;;;;;;1.20;1.10;;;1.40;98.00;;;;;;5048215;28;20464;-73
2021/04/15 00:25:27;;;;;;;1.40;1.20;;;1.40;98.00;;;;;;5051236;28;20465;-72
2021/04/15 00:27:54;;;;;;;1.20;1.00;;;1.40;98.00;;;;;;5049284;28;20514;-72
2021/04/15 00:30:22;;;;;;;1.73;1.20;;;1.20;98.00;;;;;;5055066;28;20489;-74
2021/04/15 00:32:51;;;;;;;1.20;1.00;;;1.20;98.00;;;;;;5052015;28;20954;-73
2021/04/15 00:35:20;;;;;;;1.20;1.00;;;1.20;98.00;;;;;;5054814;28;20971;-73
2021/04/15 00:37:48;;;;;;;2.13;1.97;;;1.30;98.00;;;;;;5052259;28;20465;-73
2021/04/15 00:40:16;;;;;;;1.20;1.00;;;1.20;98.00;;;;;;5054809;28;20824;-72
2021/04/15 00:42:43;;;;;;;1.57;1.43;;;1.10;98.00;;;;;;5051841;28;20460;-72
2021/04/15 00:45:13;;;;;;;1.20;1.00;;;1.00;98.00;;;;;;5053255;28;20492;-72
2021/04/15 00:47:49;;;;;;;2.37;1.83;;;0.80;98.00;;;;;;5051973;28;20825;-72
2021/04/15 00:50:25;;;;;;;1.20;1.10;;;0.50;98.00;;;;;;5052767;28;20487;-73
2021/04/15 00:52:55;;;;;;;1.20;0.90;;;0.50;98.00;;;;;;5052459;28;20803;-73
2021/04/15 00:55:26;;;;;;;1.20;1.00;;;0.50;98.00;;;;;;5054507;28;20462;-72
2021/04/15 00:57:53;;;;;;;1.40;1.30;;;0.50;98.00;;;;;;5051751;28;20473;-73
2021/04/15 01:00:25;;;;;;;1.20;1.00;;;0.50;98.00;;;;;;5053101;28;20767;-73
2021/04/15 01:02:52;;;;;;;1.30;1.10;;;0.60;98.00;;;;;;5051559;28;20511;-72
2021/04/15 01:05:23;;;;;;;1.20;1.00;;;0.70;98.00;;;;;;5054332;28;20453;-72
2021/04/15 01:07:51;;;;;;;1.53;1.30;;;0.70;98.00;;;;;;5050191;28;20475;-73
2021/04/15 01:10:18;;;;;;;1.20;1.00;;;0.80;98.00;;;;;;5054115;28;20591;-73
2021/04/15 01:12:58;;;;;;;1.20;1.10;;;0.80;98.00;;;;;;5050413;28;20558;-72
2021/04/15 01:15:41;;;;;;;1.20;1.00;;;0.80;98.00;;;;;;5053024;28;20844;-73
2021/04/15 01:18:14;;;;;;;1.30;1.13;;;0.80;98.00;;;;;;5051641;28;20458;-73
2021/04/15 01:21:07;;;;;;;1.87;1.60;;;0.60;98.00;;;;;;5053986;28;20464;-73
2021/04/15 01:23:39;;;;;;;1.40;1.20;;;0.30;98.00;;;;;;5050870;28;20516;-73
2021/04/15 01:26:21;;;;;;;2.53;1.80;;;0.00;98.00;;;;;;5053158;28;20850;-73
2021/04/15 01:29:01;;;;;;;1.20;1.20;;;-0.10;98.00;;;;;;5050275;28;20952;-73
2021/04/15 01:31:40;;;;;;;1.20;1.03;;;-0.30;98.00;;;;;;5052669;28;20455;-73
2021/04/15 01:34:11;;;;;;;1.33;1.20;;;-0.30;98.00;;;;;;5050942;28;20458;-73
2021/04/15 01:36:45;;;;;;;1.20;1.00;;;-0.20;98.00;;;;;;5053535;28;20461;-73
2021/04/15 01:39:16;;;;;;;2.80;2.33;;;-0.10;98.00;;;;;;5050172;28;20454;-73
2021/04/15 01:41:50;;;;;;;1.20;1.00;;;0.00;98.00;;;;;;5053496;28;20460;-73
2021/04/15 01:44:24;;;;;;;1.73;1.30;;;0.20;98.00;;;;;;5050866;28;20464;-74
2021/04/15 01:46:55;;;;;;;1.23;1.07;;;0.20;98.00;;;;;;5053273;28;20469;-73
2021/04/15 01:49:24;;;;;;;2.23;1.77;;;0.30;98.00;;;;;;5050263;28;21020;-73
2021/04/15 01:51:52;;;;;;;1.77;1.50;;;0.30;98.00;;;;;;5052049;28;20462;-73
2021/04/15 01:54:23;;;;;;;1.50;1.20;;;0.40;98.00;;;;;;5051133;28;20463;-72
2021/04/15 01:56:55;;;;;;;1.30;1.20;;;0.50;98.00;;;;;;5053376;28;20834;-72
2021/04/15 01:59:29;;;;;;;1.20;1.00;;;0.30;98.00;;;;;;5049603;28;20531;-72
2021/04/15 02:02:01;;;;;;;1.20;1.00;;;0.20;98.00;;;;;;5053397;28;20270;-72
2021/04/15 02:04:31;;;;;;;1.30;1.10;;;0.20;98.00;;;;;;5049751;28;20461;-72
2021/04/15 02:07:02;;;;;;;1.20;1.13;;;0.20;98.00;;;;;;5051941;28;20479;-72
2021/04/15 02:09:30;;;;;;;1.20;1.10;;;0.30;98.00;;;;;;5050590;28;20506;-73
2021/04/15 02:12:03;;;;;;;1.20;1.10;;;0.30;98.00;;;;;;5053138;28;21136;-72
2021/04/15 02:14:34;;;;;;;1.20;1.07;;;0.50;98.00;;;;;;5050084;28;20456;-73
2021/04/15 02:17:04;;;;;;;1.50;1.40;;;0.50;98.00;;;;;;5052845;28;20470;-73
2021/04/15 02:19:34;;;;;;;5.33;1.93;;;0.50;98.00;;;;;;5050404;28;20518;-73
2021/04/15 02:22:08;;;;;;;1.63;1.40;;;0.70;98.00;;;;;;5052727;28;20874;-73
2021/04/15 02:24:39;;;;;;;4.40;2.27;;;0.80;98.00;;;;;;5049936;28;20464;-72
2021/04/15 02:27:13;;;;;;;1.20;1.00;;;0.90;98.00;;;;;;5052244;28;20468;-71
2021/04/15 02:29:44;;;;;;;1.67;1.10;;;0.90;98.00;;;;;;5050204;28;20545;-73
2021/04/15 02:32:16;;;;;;;1.20;1.10;;;0.80;98.00;;;;;;5052617;28;20455;-73
2021/04/15 02:34:47;;;;;;;1.20;1.00;;;0.70;98.00;;;;;;5049627;28;20467;-72
2021/04/15 02:37:18;;;;;;;1.83;1.73;;;0.60;98.00;;;;;;5052667;28;20464;-72
2021/04/15 02:39:47;;;;;;;1.20;1.10;;;0.60;98.00;;;;;;5050042;28;20504;-72
2021/04/15 02:42:22;;;;;;;1.20;1.10;;;0.20;98.00;;;;;;5052203;28;20521;-73
2021/04/15 02:44:57;;;;;;;1.20;1.00;;;0.00;98.00;;;;;;5049442;28;20459;-73
2021/04/15 02:47:31;;;;;;;1.20;1.00;;;0.00;98.00;;;;;;5052471;28;20460;-73
2021/04/15 02:49:59;;;;;;;1.77;1.67;;;0.00;98.00;;;;;;5049656;28;20484;-73
2021/04/15 02:52:31;;;;;;;1.20;1.10;;;0.20;98.00;;;;;;5051948;28;20460;-72
2021/04/15 02:55:01;;;;;;;1.27;1.10;;;0.40;98.00;;;;;;5049597;28;20466;-73
2021/04/15 02:57:32;;;;;;;3.83;1.27;;;0.20;98.00;;;;;;5052084;28;20479;-73
2021/04/15 03:00:06;;;;;;;1.70;1.30;;;0.10;98.00;;;;;;5050025;28;20557;-73
2021/04/15 03:02:36;;;;;;;1.10;1.00;;;-0.10;98.00;;;;;;5052205;28;20823;-72
2021/04/15 03:05:07;;;;;;;1.20;1.13;;;-0.10;98.00;;;;;;5047893;28;20461;-73
2021/04/15 03:07:37;;;;;;;1.50;1.20;;;-0.10;98.00;;;;;;5052129;28;20475;-73
2021/04/15 03:10:08;;;;;;;1.43;1.30;;;0.00;98.00;;;;;;5049320;28;20505;-73
2021/04/15 03:12:38;;;;;;;2.03;1.43;;;0.20;98.00;;;;;;5051897;28;20469;-73
2021/04/15 03:15:10;;;;;;;2.47;1.50;;;0.20;98.00;;;;;;5049193;28;20486;-73
2021/04/15 03:17:40;;;;;;;1.30;1.30;;;0.40;98.00;;;;;;5051768;28;20939;-72
2021/04/15 03:20:12;;;;;;;2.07;1.20;;;0.50;98.00;;;;;;5047516;28;20943;-73
2021/04/15 03:22:45;;;;;;;1.73;1.30;;;0.40;98.00;;;;;;5051624;28;20470;-72
2021/04/15 03:25:12;;;;;;;1.20;1.20;;;0.60;98.00;;;;;;5051319;28;21099;-73
2021/04/15 03:27:45;;;;;;;1.20;0.97;;;0.80;98.00;;;;;;5051441;28;21263;-72
2021/04/15 03:30:17;;;;;;;1.50;1.40;;;0.90;98.00;;;;;;5050109;28;20479;-72
2021/04/15 03:32:50;;;;;;;1.20;1.03;;;0.80;98.00;;;;;;5051434;28;20460;-73
2021/04/15 03:35:23;;;;;;;1.20;1.00;;;0.70;98.00;;;;;;5051949;28;20460;-72
2021/04/15 03:37:55;;;;;;;1.63;1.37;;;0.60;98.00;;;;;;5048712;28;20453;-72
2021/04/15 03:40:24;;;;;;;1.50;1.20;;;0.30;98.00;;;;;;5051751;28;20456;-72
2021/04/15 03:42:55;;;;;;;1.30;1.20;;;0.20;98.00;;;;;;5048661;28;20462;-74
2021/04/15 03:45:30;;;;;;;1.20;1.00;;;0.10;98.00;;;;;;5050374;28;20461;-72
2021/04/15 03:48:01;;;;;;;1.57;1.50;;;0.10;98.00;;;;;;5048937;28;20455;-73
2021/04/15 03:50:47;;;;;;;1.57;1.37;;;-0.10;98.00;;;;;;5051522;28;20488;-73
2021/04/15 03:53:18;;;;;;;2.43;2.13;;;-0.20;98.00;;;;;;5048998;28;20520;-73
2021/04/15 03:55:48;;;;;;;1.20;1.00;;;-0.20;98.00;;;;;;5051542;28;20456;-73
2021/04/15 03:58:20;;;;;;;1.20;1.10;;;0.00;98.00;;;;;;5048509;28;20459;-72
2021/04/15 04:00:53;;;;;;;1.20;1.10;;;0.20;98.00;;;;;;5051175;28;20458;-73
2021/04/15 04:03:24;;;;;;;1.20;1.00;;;0.20;98.00;;;;;;5053853;28;20838;-73
2021/04/15 04:05:56;;;;;;;1.20;1.03;;;0.20;98.00;;;;;;5057473;28;20459;-72
2021/04/15 04:08:34;;;;;;;1.40;1.20;;;0.20;98.00;;;;;;5055411;28;20458;-72
2021/04/15 04:11:01;;;;;;;1.20;1.00;;;0.30;98.00;;;;;;5057583;28;20491;-72
2021/04/15 04:13:32;;;;;;;1.20;1.00;;;0.20;98.00;;;;;;5055020;28;20456;-73
2021/04/15 04:16:06;;;;;;;1.47;1.40;;;0.30;98.00;;;;;;5057475;28;20452;-73
2021/04/15 04:18:44;;;;;;;1.20;1.00;;;0.20;98.00;;;;;;5055164;28;20517;-72
2021/04/15 04:21:17;;;;;;;1.40;1.20;;;0.30;98.00;;;;;;5057683;28;20532;-72
2021/04/15 04:23:48;;;;;;;1.20;1.00;;;0.40;98.00;;;;;;5053718;28;20463;-73
2021/04/15 04:26:23;;;;;;;1.20;1.10;;;0.40;98.00;;;;;;5058146;28;20456;-73
2021/04/15 04:29:08;;;;;;;1.60;1.40;;;0.40;98.00;;;;;;5054325;28;20463;-73
2021/04/15 04:31:41;;;;;;;1.20;1.00;;;0.60;98.00;;;;;;5057806;28;20456;-72
2021/04/15 04:34:09;;;;;;;3.10;1.80;;;0.60;98.00;;;;;;5054985;28;20477;-73
2021/04/15 04:36:37;;;;;;;1.20;1.10;;;0.60;98.00;;;;;;5057797;28;20787;-73
2021/04/15 04:39:05;;;;;;;1.30;1.27;;;0.50;98.00;;;;;;5054760;28;20949;-73
2021/04/15 04:41:46;;;;;;;1.27;1.17;;;0.50;98.00;;;;;;5057609;28;20828;-73
2021/04/15 04:44:18;;;;;;;1.30;1.30;;;0.40;98.00;;;;;;5054549;28;20521;-72
2021/04/15 04:46:48;;;;;;;1.27;1.13;;;0.30;98.00;;;;;;5057639;28;20464;-72
2021/04/15 04:49:21;;;;;;;1.50;1.37;;;0.30;98.00;;;;;;5054789;28;20486;-73
2021/04/15 04:51:51;;;;;;;1.20;1.00;;;0.20;98.00;;;;;;5057524;28;20509;-73
2021/04/15 04:54:20;;;;;;;1.80;1.37;;;0.30;98.00;;;;;;5054773;28;20460;-72
2021/04/15 04:56:51;;;;;;;1.30;1.10;;;0.50;98.00;;;;;;5057283;28;20467;-72
2021/04/15 04:59:24;;;;;;;1.93;1.83;;;0.50;98.00;;;;;;5054312;28;20463;-73
2021/04/15 05:01:51;;;;;;;1.20;1.00;;;0.40;98.00;;;;;;5057533;28;20483;-73
2021/04/15 05:04:20;;;;;;;1.20;1.00;;;0.50;98.00;;;;;;5054988;28;20464;-73
2021/04/15 05:06:48;;;;;;;1.63;1.30;;;0.60;98.00;;;;;;5057247;28;20495;-73
2021/04/15 05:09:20;;;;;;;1.47;1.20;;;0.60;98.00;;;;;;5054666;28;20598;-73
2021/04/15 05:11:48;;;;;;;1.20;1.03;;;0.50;98.00;;;;;;5057106;28;20475;-72
2021/04/15 05:14:18;;;;;;;1.37;1.30;;;0.40;98.00;;;;;;5052854;28;20451;-72
2021/04/15 05:16:48;;;;;;;1.20;1.00;;;0.50;98.00;;;;;;5054153;28;20451;-73
2021/04/15 05:19:16;;;;;;;1.20;1.10;;;0.60;98.00;;;;;;5051261;28;20464;-72
2021/04/15 05:21:44;;;;;;;1.20;1.20;;;0.40;98.00;;;;;;5054223;28;20447;-73
2021/04/15 05:24:16;;;;;;;1.20;1.03;;;0.20;98.00;;;;;;5051649;28;20468;-72
2021/04/15 05:26:44;;;;;;;1.80;1.23;;;0.20;98.00;;;;;;5054008;28;20945;-72
2021/04/15 05:29:16;;;;;;;1.20;1.00;;;0.40;98.00;;;;;;5051162;28;20510;-72
2021/04/15 05:31:46;;;;;;;1.20;0.90;;;0.50;98.00;;;;;;5053935;28;20459;-74
2021/04/15 05:34:24;;;;;;;1.20;0.90;;;0.60;98.00;;;;;;5051304;28;20456;-73
2021/04/15 05:36:54;;;;;;;1.40;1.30;;;0.70;98.00;;;;;;5054032;28;20539;-72
2021/04/15 05:39:22;;;;;;;1.20;1.00;;;0.90;98.00;;;;;;5050967;28;20485;-72
2021/04/15 05:41:58;;;;;;;2.90;2.70;;;0.90;98.00;;;;;;5053681;28;20510;-72
2021/04/15 05:44:29;;;;;;;1.43;1.20;;;1.10;98.00;;;;;;5051154;28;20462;-73
2021/04/15 05:46:56;;;;;;;1.57;1.30;;;1.20;98.00;;;;;;5053529;28;20456;-72
2021/04/15 05:49:27;;;;;;;1.93;1.30;;;1.00;98.00;;;;;;5050723;28;20487;-71
2021/04/15 05:52:00;;;;;;;1.20;1.00;;;0.90;98.00;;;;;;5053599;28;20950;-72
2021/04/15 05:54:30;;;;;;;1.20;1.10;;;0.80;98.00;;;;;;5050628;28;20451;-73
2021/04/15 05:57:02;;;;;;;3.00;1.63;;;0.90;98.00;;;;;;5053172;28;20476;-73
2021/04/15 05:59:44;;;;;;;1.20;1.10;;;1.10;98.00;;;;;;5050583;28;20518;-72
2021/04/15 06:02:33;;;;;;;4.03;1.33;;;1.20;98.00;;;;;;5053074;28;20499;-71
2021/04/15 06:05:09;;;;;;;1.20;0.90;;;1.20;98.00;;;;;;5050765;28;20526;-73
2021/04/15 06:07:39;;;;;;;1.53;1.47;;;1.10;98.00;;;;;;5053324;28;20880;-72
2021/04/15 06:10:08;;;;;;;4.07;1.63;;;1.00;98.00;;;;;;5051053;28;20496;-72
2021/04/15 06:12:40;;;;;;;3.10;2.70;;;0.90;98.00;;;;;;5053308;28;20478;-72
2021/04/15 06:15:11;;;;;;;1.20;1.00;;;0.90;98.00;;;;;;5048615;28;20495;-72
2021/04/15 06:17:42;;;;;;;1.20;1.00;;;1.10;98.00;;;;;;5053158;28;20463;-72
2021/04/15 06:20:15;;;;;;;1.20;1.00;;;1.10;98.00;;;;;;5049375;28;20821;-72
2021/04/15 06:22:46;;;;;;;1.30;1.10;;;1.20;98.00;;;;;;5051748;28;20457;-72
2021/04/15 06:25:17;;;;;;;1.93;1.73;;;1.40;98.00;;;;;;5049183;28;20456;-71
2021/04/15 06:27:45;;;;;;;1.30;1.30;;;1.30;98.00;;;;;;5052630;28;20467;-72
2021/04/15 06:30:17;;;;;;;1.47;1.40;;;1.30;98.00;;;;;;5050161;28;20541;-71
2021/04/15 06:32:49;;;;;;;1.20;1.10;;;1.30;98.00;;;;;;5052719;28;20820;-72
2021/04/15 06:35:21;;;;;;;1.30;1.30;;;1.50;98.00;;;;;;5049718;28;20467;-72
2021/04/15 06:37:52;;;;;;;1.20;1.00;;;1.30;98.00;;;;;;5051163;28;20464;-71
2021/04/15 06:40:48;;;;;;;1.20;1.07;;;1.20;98.00;;;;;;5049083;28;20466;-70
2021/04/15 06:43:40;;;;;;;1.60;1.40;;;1.30;98.00;;;;;;5013610;28;20485;-72
2021/04/15 06:46:17;;;;;;;1.20;1.17;;;1.60;98.00;;;;;;5033966;28;20522;-71
2021/04/15 06:49:01;;;;;;;1.30;1.17;;;1.80;98.00;;;;;;5048753;28;20465;-71
2021/04/15 06:51:38;;;;;;;1.87;1.30;;;2.00;98.00;;;;;;5051179;28;20460;-71
2021/04/15 06:54:36;;;;;;;1.20;1.00;;;2.00;98.00;;;;;;5049059;28;20460;-72
2021/04/15 06:57:25;;;;;;;1.30;1.10;;;2.00;98.00;;;;;;5051557;28;20484;-72
2021/04/15 07:00:06;;;;;;;1.30;1.20;;;2.30;98.00;;;;;;5049619;28;20472;-71
2021/04/15 07:02:54;;;;;;;2.13;2.00;;;2.40;98.00;;;;;;5051777;28;20972;-70
2021/04/15 07:05:23;;;;;;;1.83;1.67;;;2.50;98.00;;;;;;5049373;28;20461;-71
2021/04/15 07:07:56;;;;;;;1.20;1.20;;;2.40;98.00;;;;;;5051587;28;20457;-71
2021/04/15 07:10:50;;;;;;;1.40;1.27;;;2.60;98.00;;;;;;5048165;28;20484;-73
2021/04/15 07:13:52;;;;;;;1.67;1.30;;;2.40;98.00;;;;;;5049559;28;20488;-71
2021/04/15 07:16:36;;;;;;;3.77;2.50;;;2.40;98.00;;;;;;5051203;28;20465;-70
2021/04/15 07:19:40;;;;;;;1.33;1.13;;;2.40;98.00;;;;;;5048410;28;20532;-72
2021/04/15 07:22:33;;;;;;;1.20;1.00;;;2.30;98.00;;;;;;5051142;28;20952;-73
2021/04/15 07:25:16;;;;;;;1.50;1.50;;;2.50;98.00;;;;;;5048479;28;20472;-73
2021/04/15 07:28:22;;;;;;;1.90;1.57;;;2.70;98.00;;;;;;5051176;28;20978;-70
2021/04/15 07:31:06;;;;;;;1.20;1.00;;;2.90;98.00;;;;;;4969899;28;20489;-72
2021/04/15 07:34:03;;;;;;;1.47;1.30;;;3.10;98.00;;;;;;5044765;28;20476;-69
2021/04/15 07:36:48;;;;;;;1.40;1.27;;;3.20;98.00;;;;;;5050363;28;20470;-70
2021/04/15 07:39:42;;;;;;;2.07;1.33;;;3.20;98.00;;;;;;5047844;28;20476;-72
2021/04/15 07:42:43;;;;;;;1.20;1.00;;;3.40;98.00;;;;;;5050817;28;21000;-72
2021/04/15 07:45:15;;;;;;;2.70;1.67;;;3.60;98.00;;;;;;5047837;28;20461;-71
2021/04/15 07:48:21;;;;;;;1.20;1.00;;;3.70;98.00;;;;;;5050781;28;20458;-72
2021/04/15 07:51:23;;;;;;;1.70;1.43;;;3.90;98.00;;;;;;5050993;28;20504;-72
2021/04/15 07:54:23;;;;;;;1.50;1.40;;;3.90;98.00;;;;;;5047831;28;20457;-71
2021/04/15 07:57:44;;;;;;;1.50;1.47;;;3.90;98.00;;;;;;5050449;28;20470;-72
2021/04/15 08:00:36;;;;;;;1.87;1.50;;;4.10;98.00;;;;;;5047929;28;20668;-72
2021/04/15 08:03:35;;;;;;;1.20;1.13;;;4.40;98.00;;;;;;5047284;28;20500;-72
2021/04/15 08:06:23;;;;;;;1.37;1.30;;;4.30;98.00;;;;;;5050403;28;20819;-72
2021/04/15 08:09:44;;;;;;;1.30;1.20;;;4.30;98.00;;;;;;5047936;28;20465;-72
2021/04/15 08:13:02;;;;;;;1.20;1.10;;;4.60;98.00;;;;;;4969346;28;20457;-72
2021/04/15 08:16:03;;;;;;;2.17;1.23;;;4.50;98.00;;;;;;5021578;28;20454;-72
2021/04/15 08:18:41;;;;;;;1.20;1.00;;;4.80;98.00;;;;;;5047659;28;20452;-72
2021/04/15 08:21:30;;;;;;;1.20;1.10;;;4.90;98.00;;;;;;5050616;28;20484;-72
2021/04/15 08:24:24;;;;;;;1.20;1.00;;;5.00;98.00;;;;;;5061660;28;21039;-72
2021/04/15 08:27:40;;;;;;;1.20;1.00;;;5.30;98.00;;;;;;5070403;28;20468;-71
2021/04/15 08:30:35;;;;;;;1.20;1.00;;;5.60;98.00;;;;;;5067783;28;20488;-71
2021/04/15 08:33:33;;;;;;;1.27;1.23;;;5.90;98.00;;;;;;5050376;28;20473;-71
2021/04/15 08:36:18;;;;;;;1.30;1.10;;;6.20;96.10;;;;;;5049458;28;20501;-71
2021/04/15 08:39:00;;;;;;;1.20;1.00;;;6.30;94.90;;;;;;5046274;28;20475;-72
2021/04/15 08:41:38;;;;;;;2.33;1.63;;;6.40;94.70;;;;;;5050668;28;20528;-71
2021/04/15 08:44:20;;;;;;;1.20;0.93;;;6.40;94.50;;;;;;5047543;28;20468;-71
2021/04/15 08:46:57;;;;;;;1.57;1.37;;;6.60;94.10;;;;;;5050034;28;20503;-70
2021/04/15 08:49:35;;;;;;;2.80;1.70;;;6.70;94.90;;;;;;5048790;28;20465;-71
2021/04/15 08:52:16;;;;;;;1.87;1.30;;;6.90;93.60;;;;;;5053993;28;20450;-71
2021/04/15 08:55:03;;;;;;;1.27;1.20;;;7.00;92.00;;;;;;5051210;28;20458;-71
2021/04/15 08:57:41;;;;;;;1.20;0.97;;;7.20;93.10;;;;;;5066608;28;20476;-71
2021/04/15 09:00:26;;;;;;;1.53;1.33;;;7.30;91.00;;;;;;5051182;28;20460;-71
2021/04/15 09:03:07;;;;;;;1.30;1.20;;;7.60;90.70;;;;;;5053611;28;20552;-70
2021/04/15 09:05:58;;;;;;;1.20;1.00;;;7.70;90.30;;;;;;5050667;28;20468;-70
2021/04/15 09:08:32;;;;;;;1.20;1.17;;;7.80;89.30;;;;;;5051022;28;20507;-71
2021/04/15 09:11:10;;;;;;;1.60;1.20;;;7.80;88.30;;;;;;5053198;28;21206;-70
2021/04/15 09:13:44;;;;;;;1.30;1.10;;;8.00;88.60;;;;;;5055164;28;21178;-70
2021/04/15 09:16:19;;;;;;;1.20;1.20;;;8.30;87.20;;;;;;5072668;28;20459;-70
2021/04/15 09:18:54;;;;;;;1.40;1.27;;;8.50;86.90;;;;;;5070850;28;20458;-71
2021/04/15 09:21:38;;;;;;;4.40;1.83;;;8.70;84.00;;;;;;5073348;28;20451;-70
2021/04/15 09:24:16;;;;;;;1.20;1.03;;;8.80;82.80;;;;;;5070519;28;20794;-70
2021/04/15 09:27:09;;;;;;;1.20;1.00;;;8.80;83.40;;;;;;5070642;28;20460;-70
2021/04/15 09:29:38;;;;;;;1.20;1.00;;;8.60;82.40;;;;;;5070413;28;20537;-71
2021/04/15 09:32:15;;;;;;;1.20;1.00;;;8.50;84.60;;;;;;5073326;28;20461;-70
2021/04/15 09:35:08;;;;;;;1.40;1.10;;;8.20;84.40;;;;;;5070550;28;20467;-70
2021/04/15 09:38:10;;;;;;;1.20;1.10;;;8.10;84.20;;;;;;5073332;28;20465;-71
2021/04/15 09:40:53;;;;;;;1.30;1.30;;;8.00;84.00;;;;;;5070655;28;20472;-71
2021/04/15 09:43:30;;;;;;;1.20;1.10;;;7.90;83.80;;;;;;5073200;28;20462;-70
2021/04/15 09:46:11;;;;;;;1.50;1.20;;;8.00;84.50;;;;;;5073042;28;20461;-71
2021/04/15 09:49:00;;;;;;;1.20;1.07;;;7.90;84.50;;;;;;5070654;28;20463;-70
2021/04/15 09:51:51;;;;;;;1.30;1.17;;;8.00;85.50;;;;;;5072816;28;20520;-70
2021/04/15 09:54:31;;;;;;;1.40;1.33;;;8.40;84.70;;;;;;5069203;28;20451;-70
2021/04/15 09:57:13;;;;;;;1.40;1.20;;;8.60;82.80;;;;;;5072637;28;20933;-70
2021/04/15 10:00:10;;;;;;;1.80;1.50;;;8.70;83.10;;;;;;5069847;28;20492;-70
2021/04/15 10:02:46;;;;;;;1.20;1.10;;;8.70;82.20;;;;;;5072828;28;20454;-71
2021/04/15 10:05:18;;;;;;;1.30;1.20;;;8.70;81.60;;;;;;5070123;28;20460;-71
2021/04/15 10:07:50;;;;;;;1.63;1.30;;;8.70;82.10;;;;;;5072764;28;20468;-71
2021/04/15 10:10:26;;;;;;;1.20;0.97;;;9.10;81.00;;;;;;5069279;28;20484;-70
2021/04/15 10:13:02;;;;;;;1.40;1.20;;;9.40;79.40;;;;;;5072664;28;20508;-70
2021/04/15 10:15:43;;;;;;;1.63;1.27;;;9.70;79.00;;;;;;5087243;28;20460;-71
2021/04/15 10:18:24;;;;;;;1.40;1.20;;;9.80;77.20;;;;;;5091471;28;20555;-70
2021/04/15 10:21:11;;;;;;;1.40;1.00;;;9.90;76.60;;;;;;5089454;28;20542;-70
2021/04/15 10:24:11;;;;;;;1.20;1.00;;;9.80;75.10;;;;;;5075009;28;21017;-71
2021/04/15 10:27:08;;;;;;;1.20;1.07;;;9.90;77.00;;;;;;5071743;28;20991;-70
2021/04/15 10:30:14;;;;;;;1.30;1.10;;;10.00;74.50;;;;;;5069661;28;20510;-71
2021/04/15 10:33:08;;;;;;;1.20;1.07;;;9.80;74.60;;;;;;5071858;28;20454;-70
2021/04/15 10:36:04;;;;;;;1.37;1.37;;;9.50;74.80;;;;;;5066693;28;21257;-70
2021/04/15 10:38:55;;;;;;;1.20;1.13;;;9.40;76.00;;;;;;5070198;28;20497;-71
2021/04/15 10:41:57;;;;;;;1.50;1.20;;;9.30;75.60;;;;;;5044051;28;20460;-73
2021/04/15 10:44:49;;;;;;;1.20;1.00;;;9.20;76.70;;;;;;5069677;28;20454;-71
2021/04/15 10:47:28;;;;;;;1.20;1.03;;;9.10;76.10;;;;;;5071972;28;20473;-70
2021/04/15 10:50:08;;;;;;;1.20;1.00;;;9.10;75.20;;;;;;5069958;28;20619;-70
2021/04/15 10:52:56;;;;;;;1.83;1.30;;;9.10;76.00;;;;;;5072046;28;21120;-71
2021/04/15 10:55:26;;;;;;;1.20;1.00;;;8.80;76.00;;;;;;5069116;28;20793;-70
2021/04/15 10:57:54;;;;;;;1.20;1.00;;;8.70;78.50;;;;;;5071877;28;20484;-71
2021/04/15 11:00:28;;;;;;;1.20;1.00;;;8.90;78.70;;;;;;5069381;28;20454;-71
2021/04/15 11:02:56;;;;;;;1.20;1.00;;;9.20;77.30;;;;;;5071688;28;20525;-71
2021/04/15 11:05:26;;;;;;;1.20;1.03;;;9.50;76.10;;;;;;5069072;28;20507;-71
2021/04/15 11:07:56;;;;;;;1.20;1.00;;;10.00;75.00;;;;;;5071867;28;20827;-71
2021/04/15 11:10:28;;;;;;;1.37;1.33;;;10.40;73.90;;;;;;5068648;28;20486;-71
2021/04/15 11:13:23;;;;;;;1.20;1.00;;;10.60;71.40;;;;;;5070773;28;20514;-71
2021/04/15 11:15:52;;;;;;;1.20;1.00;;;10.50;70.50;;;;;;5068553;28;20789;-71
2021/04/15 11:18:26;;;;;;;1.30;1.20;;;10.40;73.20;;;;;;5070039;28;20993;-71
2021/04/15 11:21:10;;;;;;;1.20;1.00;;;10.20;74.10;;;;;;5068532;28;20483;-72
2021/04/15 11:23:37;;;;;;;1.20;1.00;;;10.10;73.90;;;;;;5068584;28;20996;-73
2021/04/15 11:26:20;;;;;;;1.20;1.00;;;9.80;75.90;;;;;;5070923;28;20978;-72
2021/04/15 11:28:48;;;;;;;1.30;1.00;;;9.80;76.60;;;;;;5068261;28;20453;-72
2021/04/15 11:31:38;;;;;;;1.20;1.00;;;9.60;77.30;;;;;;5071029;28;20479;-72
2021/04/15 11:34:11;;;;;;;1.20;1.00;;;9.40;78.60;;;;;;5060294;28;20459;-72
2021/04/15 11:36:40;;;;;;;1.50;1.13;;;9.40;78.30;;;;;;5070722;28;20455;-73
2021/04/15 11:39:13;;;;;;;1.20;1.00;;;9.50;79.50;;;;;;5068077;28;20455;-72
2021/04/15 11:41:51;;;;;;;1.60;1.13;;;10.30;78.90;;;;;;5071131;28;20512;-72
2021/04/15 11:44:27;;;;;;;1.40;1.40;;;10.90;75.70;;;;;;5068710;28;20472;-72
2021/04/15 11:46:57;;;;;;;1.30;1.10;;;11.70;74.40;;;;;;5070632;28;20554;-72
2021/04/15 11:49:29;;;;;;;1.20;1.00;;;11.70;75.40;;;;;;5068000;28;20459;-71
2021/04/15 11:52:03;;;;;;;1.20;1.10;;;11.30;75.60;;;;;;5070964;28;20460;-71
2021/04/15 11:54:33;;;;;;;1.70;1.50;;;11.40;77.50;;;;;;5067977;28;20516;-71
2021/04/15 11:57:22;;;;;;;1.67;1.30;;;11.70;77.40;;;;;;5070546;28;20829;-71
2021/04/15 12:00:14;;;;;;;1.20;1.00;;;11.50;77.80;;;;;;5067780;28;20464;-71
2021/04/15 12:02:45;;;;;;;1.20;0.93;;;11.00;79.10;;;;;;5070471;28;20455;-71
2021/04/15 12:05:18;;;;;;;2.13;1.40;;;10.60;78.40;;;;;;5067793;28;20459;-71
2021/04/15 12:07:53;;;;;;;1.30;1.13;;;10.20;79.50;;;;;;5070217;28;20945;-71
2021/04/15 12:10:23;;;;;;;1.60;1.20;;;10.00;81.30;;;;;;5067624;28;20487;-72
2021/04/15 12:12:54;;;;;;;1.57;1.33;;;9.90;80.70;;;;;;5070432;28;20460;-71
2021/04/15 12:15:26;;;;;;;1.40;1.20;;;9.90;78.90;;;;;;5067840;28;20510;-71
2021/04/15 12:18:00;;;;;;;1.20;1.00;;;9.80;78.80;;;;;;5070355;28;20463;-71
2021/04/15 12:20:32;;;;;;;1.40;1.10;;;9.70;79.10;;;;;;5067930;28;20454;-71
2021/04/15 12:23:10;;;;;;;1.93;1.60;;;9.50;80.20;;;;;;5071069;28;20512;-71
2021/04/15 12:25:41;;;;;;;1.50;1.20;;;9.60;79.40;;;;;;5070985;28;20464;-71
2021/04/15 12:28:24;;;;;;;1.50;1.40;;;9.90;78.00;;;;;;5074797;28;20481;-71
2021/04/15 12:30:59;;;;;;;1.20;1.10;;;10.20;77.90;;;;;;5071845;28;20519;-71
2021/04/15 12:33:34;;;;;;;1.30;1.30;;;10.70;76.60;;;;;;5074577;28;20965;-71
2021/04/15 12:36:07;;;;;;;1.20;1.00;;;11.00;74.20;;;;;;5071403;28;20508;-71
2021/04/15 12:38:38;;;;;;;1.30;1.03;;;11.30;75.70;;;;;;5074207;28;20844;-71
2021/04/15 12:41:07;;;;;;;1.57;1.23;;;11.70;73.50;;;;;;5072110;28;20950;-71
2021/04/15 12:43:37;;;;;;;1.20;1.00;;;12.10;71.60;;;;;;5074297;28;20872;-71
2021/04/15 12:46:08;;;;;;;3.73;1.30;;;12.30;68.60;;;;;;5070373;28;20460;-71
2021/04/15 12:48:42;;;;;;;1.20;1.10;;;12.50;67.30;;;;;;5074083;28;20462;-71
2021/04/15 12:51:11;;;;;;;1.30;1.20;;;12.50;68.90;;;;;;5072843;28;20564;-71
2021/04/15 12:53:41;;;;;;;1.30;1.20;;;12.40;69.10;;;;;;5073977;28;20962;-71
2021/04/15 12:56:10;;;;;;;4.10;1.47;;;12.10;71.40;;;;;;5072593;28;20476;-71
2021/04/15 12:58:37;;;;;;;2.07;1.43;;;11.90;70.60;;;;;;5073923;28;20555;-71
2021/04/15 13:01:04;;;;;;;1.70;1.47;;;11.30;73.40;;;;;;5068781;28;20453;-72
2021/04/15 13:03:33;;;;;;;2.33;1.67;;;10.70;75.00;;;;;;5073737;28;20556;-71
2021/04/15 13:06:05;;;;;;;1.20;0.90;;;10.40;76.40;;;;;;5071001;28;20452;-71
2021/04/15 13:08:40;;;;;;;1.30;1.10;;;10.10;78.20;;;;;;5073679;28;20785;-71
2021/04/15 13:11:30;;;;;;;1.63;1.13;;;9.80;79.90;;;;;;5071387;28;20489;-71
2021/04/15 13:13:58;;;;;;;1.80;1.20;;;9.50;79.30;;;;;;5070939;28;20957;-72
2021/04/15 13:16:46;;;;;;;1.73;1.50;;;9.50;79.90;;;;;;5073465;28;20830;-71
2021/04/15 13:19:39;;;;;;;3.30;1.87;;;9.40;80.40;;;;;;5070948;28;20467;-72
2021/04/15 13:22:22;;;;;;;1.20;1.10;;;9.50;79.90;;;;;;5073271;28;20459;-71
2021/04/15 13:25:06;;;;;;;1.50;1.20;;;9.40;80.20;;;;;;5070048;28;20493;-71
2021/04/15 13:27:41;;;;;;;1.20;1.00;;;9.40;79.90;;;;;;5073450;28;20461;-72
2021/04/15 13:30:24;;;;;;;1.27;1.00;;;9.40;80.00;;;;;;5070534;28;20883;-72
2021/04/15 13:33:08;;;;;;;2.07;1.47;;;9.60;78.90;;;;;;5070444;28;20514;-71
2021/04/15 13:35:43;;;;;;;1.30;1.10;;;9.60;74.80;;;;;;5069923;28;20529;-71
2021/04/15 13:38:44;;;;;;;1.20;1.10;;;9.60;74.30;;;;;;5073193;28;20464;-71
2021/04/15 13:41:36;;;;;;;1.30;1.00;;;9.50;74.90;;;;;;5070939;28;20451;-71
2021/04/15 13:44:07;;;;;;;1.20;1.00;;;9.70;74.10;;;;;;5069904;28;20574;-71
2021/04/15 13:46:37;;;;;;;1.20;1.00;;;10.00;73.80;;;;;;5072713;28;20528;-71